createdAt,value
2022-08-30T00:00:59.705Z,1019.88
2022-08-30T00:02:01.360Z,1019.89
2022-08-30T00:03:00.802Z,1019.87
2022-08-30T00:04:00.704Z,1019.91
2022-08-30T00:05:00.439Z,1019.92
2022-08-30T00:06:00.160Z,1019.94
2022-08-30T00:07:00.039Z,1019.95
2022-08-30T00:07:59.712Z,1019.94
2022-08-30T00:09:01.408Z,1019.94
2022-08-30T00:10:01.097Z,1019.99
2022-08-30T00:11:01.655Z,1020
2022-08-30T00:12:01.556Z,1019.97
2022-08-30T00:13:01.215Z,1019.99
2022-08-30T00:14:00.926Z,1020
2022-08-30T00:15:00.641Z,1020
2022-08-30T00:16:00.641Z,1019.99
2022-08-30T00:17:00.539Z,1020
2022-08-30T00:18:00.189Z,1019.92
2022-08-30T00:18:59.832Z,1019.96
2022-08-30T00:20:01.465Z,1019.98
2022-08-30T00:21:01.127Z,1019.94
2022-08-30T00:22:00.871Z,1019.89
2022-08-30T00:23:00.814Z,1019.92
2022-08-30T00:24:00.579Z,1019.91
2022-08-30T00:25:00.287Z,1019.89
2022-08-30T00:26:00.097Z,1019.9
2022-08-30T00:26:59.881Z,1019.88
2022-08-30T00:27:59.566Z,1019.85
2022-08-30T00:29:01.213Z,1019.84
2022-08-30T00:30:00.897Z,1019.79
2022-08-30T00:31:01.121Z,1019.84
2022-08-30T00:32:00.938Z,1019.86
2022-08-30T00:33:00.638Z,1019.84
2022-08-30T00:34:01.063Z,1019.83
2022-08-30T00:35:00.786Z,1019.82
2022-08-30T00:36:00.455Z,1019.86
2022-08-30T00:37:00.119Z,1019.82
2022-08-30T00:37:59.867Z,1019.83
2022-08-30T00:39:01.531Z,1019.8
2022-08-30T00:40:01.246Z,1019.87
2022-08-30T00:41:01.053Z,1019.84
2022-08-30T00:42:00.902Z,1019.82
2022-08-30T00:43:05.642Z,1019.79
2022-08-30T00:44:00.868Z,1019.79
2022-08-30T00:45:00.604Z,1019.83
2022-08-30T00:46:00.343Z,1019.82
2022-08-30T00:47:00.133Z,1019.78
2022-08-30T00:48:05.516Z,1019.81
2022-08-30T00:49:00.838Z,1019.81
2022-08-30T00:50:00.500Z,1019.85
2022-08-30T00:51:00.257Z,1019.87
2022-08-30T00:51:59.944Z,1019.81
2022-08-30T00:53:05.111Z,1019.82
2022-08-30T00:54:00.978Z,1019.83
2022-08-30T00:55:00.671Z,1019.85
2022-08-30T00:56:00.420Z,1019.83
2022-08-30T00:57:00.178Z,1019.79
2022-08-30T00:58:05.459Z,1019.8
2022-08-30T00:59:00.909Z,1019.73
2022-08-30T01:00:01.034Z,1019.74
2022-08-30T01:01:00.756Z,1019.74
2022-08-30T01:02:01.640Z,1019.74
2022-08-30T01:03:07.238Z,1019.75
2022-08-30T01:04:01.450Z,1019.73
2022-08-30T01:05:01.465Z,1019.72
2022-08-30T01:06:00.573Z,1019.73
2022-08-30T01:07:00.589Z,1019.78
2022-08-30T01:08:11.083Z,1019.78
2022-08-30T01:09:01.489Z,1019.79
2022-08-30T01:10:01.396Z,1019.8
2022-08-30T01:11:01.080Z,1019.77
2022-08-30T01:12:00.894Z,1019.78
2022-08-30T01:13:13.141Z,1019.75
2022-08-30T01:14:01.133Z,1019.73
2022-08-30T01:15:00.769Z,1019.73
2022-08-30T01:16:00.567Z,1019.8
2022-08-30T01:17:01.419Z,1019.77
2022-08-30T01:18:13.553Z,1019.73
2022-08-30T01:19:02.111Z,1019.8
2022-08-30T01:20:01.546Z,1019.8
2022-08-30T01:21:01.284Z,1019.79
2022-08-30T01:22:00.747Z,1019.75
2022-08-30T01:23:00.479Z,1019.78
2022-08-30T01:24:00.072Z,1019.74
2022-08-30T01:24:59.817Z,1019.74
2022-08-30T01:26:01.754Z,1019.73
2022-08-30T01:27:01.619Z,1019.71
2022-08-30T01:28:01.301Z,1019.76
2022-08-30T01:29:01.430Z,1019.74
2022-08-30T01:30:01.092Z,1019.75
2022-08-30T01:31:00.852Z,1019.75
2022-08-30T01:32:00.954Z,1019.77
2022-08-30T01:33:00.756Z,1019.75
2022-08-30T01:34:00.453Z,1019.69
2022-08-30T01:35:00.103Z,1019.73
2022-08-30T01:35:59.855Z,1019.75
2022-08-30T01:37:01.561Z,1019.75
2022-08-30T01:38:00.660Z,1019.79
2022-08-30T01:39:01.359Z,1019.75
2022-08-30T01:40:01.448Z,1019.76
2022-08-30T01:41:01.513Z,1019.78
2022-08-30T01:42:01.456Z,1019.75
2022-08-30T01:43:01.174Z,1019.76
2022-08-30T01:44:00.898Z,1019.76
2022-08-30T01:45:00.564Z,1019.79
2022-08-30T01:46:00.382Z,1019.75
2022-08-30T01:47:00.572Z,1019.8
2022-08-30T01:48:02.717Z,1019.76
2022-08-30T01:49:01.448Z,1019.78
2022-08-30T01:50:01.144Z,1019.78
2022-08-30T01:51:00.848Z,1019.77
2022-08-30T01:52:01.569Z,1019.81
2022-08-30T01:53:01.366Z,1019.83
2022-08-30T01:54:01.005Z,1019.79
2022-08-30T01:55:00.674Z,1019.82
2022-08-30T01:56:00.366Z,1019.83
2022-08-30T01:57:00.071Z,1019.84
2022-08-30T01:57:59.890Z,1019.81
2022-08-30T01:59:02.922Z,1019.87
2022-08-30T02:00:00.668Z,1019.79
2022-08-30T02:01:00.420Z,1019.85
2022-08-30T02:02:00.201Z,1019.84
2022-08-30T02:02:59.906Z,1019.89
2022-08-30T02:04:00.215Z,1019.89
2022-08-30T02:05:00.017Z,1019.82
2022-08-30T02:05:59.812Z,1019.82
2022-08-30T02:07:01.571Z,1019.81
2022-08-30T02:08:01.269Z,1019.83
2022-08-30T02:09:01.249Z,1019.85
2022-08-30T02:10:01.206Z,1019.83
2022-08-30T02:11:00.934Z,1019.84
2022-08-30T02:12:00.684Z,1019.87
2022-08-30T02:13:00.465Z,1019.93
2022-08-30T02:14:00.351Z,1019.93
2022-08-30T02:15:00.003Z,1019.89
2022-08-30T02:15:59.774Z,1019.88
2022-08-30T02:17:01.615Z,1019.88
2022-08-30T02:18:01.389Z,1019.87
2022-08-30T02:19:01.404Z,1019.83
2022-08-30T02:20:01.128Z,1019.82
2022-08-30T02:21:00.831Z,1019.79
2022-08-30T02:22:00.539Z,1019.77
2022-08-30T02:23:01.561Z,1019.77
2022-08-30T02:24:01.293Z,1019.79
2022-08-30T02:25:01.171Z,1019.78
2022-08-30T02:26:00.818Z,1019.73
2022-08-30T02:27:00.473Z,1019.79
2022-08-30T02:28:00.356Z,1019.77
2022-08-30T02:29:01.067Z,1019.77
2022-08-30T02:30:01.542Z,1019.82
2022-08-30T02:31:02.367Z,1019.79
2022-08-30T02:32:01.625Z,1019.76
2022-08-30T02:33:01.404Z,1019.78
2022-08-30T02:34:00.916Z,1019.78
2022-08-30T02:35:00.628Z,1019.75
2022-08-30T02:36:00.323Z,1019.78
2022-08-30T02:37:00.021Z,1019.81
2022-08-30T02:37:59.727Z,1019.76
2022-08-30T02:39:01.784Z,1019.8
2022-08-30T02:40:01.510Z,1019.8
2022-08-30T02:41:01.341Z,1019.8
2022-08-30T02:42:01.072Z,1019.82
2022-08-30T02:43:00.783Z,1019.81
2022-08-30T02:44:04.717Z,1019.82
2022-08-30T02:45:01.827Z,1019.83
2022-08-30T02:46:01.363Z,1019.8
2022-08-30T02:47:01.783Z,1019.82
2022-08-30T02:48:01.257Z,1019.79
2022-08-30T02:49:32.077Z,1019.78
2022-08-30T02:50:01.541Z,1019.76
2022-08-30T02:51:01.153Z,1019.77
2022-08-30T02:52:00.829Z,1019.79
2022-08-30T02:53:00.848Z,1019.79
2022-08-30T02:54:11.128Z,1019.81
2022-08-30T02:55:01.562Z,1019.82
2022-08-30T02:56:00.899Z,1019.86
2022-08-30T02:57:00.551Z,1019.82
2022-08-30T02:58:00.247Z,1019.8
2022-08-30T02:59:14.211Z,1019.79
2022-08-30T03:00:01.566Z,1019.8
2022-08-30T03:01:01.071Z,1019.84
2022-08-30T03:02:00.713Z,1019.85
2022-08-30T03:03:00.400Z,1019.83
2022-08-30T03:04:14.709Z,1019.81
2022-08-30T03:05:01.115Z,1019.83
2022-08-30T03:06:01.265Z,1019.79
2022-08-30T03:07:00.629Z,1019.79
2022-08-30T03:08:00.361Z,1019.81
2022-08-30T03:09:14.885Z,1019.8
2022-08-30T03:10:01.425Z,1019.84
2022-08-30T03:11:00.728Z,1019.83
2022-08-30T03:12:00.457Z,1019.86
2022-08-30T03:13:00.160Z,1019.86
2022-08-30T03:13:59.843Z,1019.82
2022-08-30T03:15:01.595Z,1019.84
2022-08-30T03:16:01.333Z,1019.83
2022-08-30T03:17:01.101Z,1019.82
2022-08-30T03:18:01.617Z,1019.83
2022-08-30T03:19:00.897Z,1019.82
2022-08-30T03:20:00.603Z,1019.82
2022-08-30T03:21:00.460Z,1019.83
2022-08-30T03:22:00.333Z,1019.84
2022-08-30T03:23:00.038Z,1019.79
2022-08-30T03:23:59.813Z,1019.85
2022-08-30T03:25:01.730Z,1019.86
2022-08-30T03:26:01.413Z,1019.87
2022-08-30T03:27:01.161Z,1019.89
2022-08-30T03:28:00.835Z,1019.9
2022-08-30T03:29:00.787Z,1019.92
2022-08-30T03:30:00.445Z,1019.94
2022-08-30T03:31:00.083Z,1019.98
2022-08-30T03:32:00.016Z,1019.96
2022-08-30T03:32:59.831Z,1019.94
2022-08-30T03:34:00.930Z,1019.99
2022-08-30T03:35:00.613Z,1019.98
2022-08-30T03:36:00.255Z,1020
2022-08-30T03:36:59.895Z,1019.97
2022-08-30T03:37:59.602Z,1019.96
2022-08-30T03:39:01.261Z,1019.98
2022-08-30T03:40:01.142Z,1019.98
2022-08-30T03:41:01.088Z,1019.97
2022-08-30T03:42:00.851Z,1019.97
2022-08-30T03:43:00.868Z,1020.05
2022-08-30T03:44:00.881Z,1019.98
2022-08-30T03:45:00.844Z,1020.03
2022-08-30T03:46:00.542Z,1020.06
2022-08-30T03:47:00.433Z,1020.06
2022-08-30T03:48:00.234Z,1020.11
2022-08-30T03:49:00.431Z,1020.11
2022-08-30T03:50:00.116Z,1020.12
2022-08-30T03:50:59.886Z,1020.14
2022-08-30T03:51:59.595Z,1020.06
2022-08-30T03:53:01.261Z,1020.05
2022-08-30T03:54:01.031Z,1020.08
2022-08-30T03:55:01.007Z,1020.1
2022-08-30T03:56:02.020Z,1020.11
2022-08-30T03:57:01.451Z,1020.11
2022-08-30T03:58:01.108Z,1020.16
2022-08-30T03:59:00.861Z,1020.13
2022-08-30T04:00:00.561Z,1020.13
2022-08-30T04:01:00.477Z,1020.16
2022-08-30T04:02:00.388Z,1020.15
2022-08-30T04:03:00.372Z,1020.19
2022-08-30T04:04:00.148Z,1020.16
2022-08-30T04:04:59.810Z,1020.17
2022-08-30T04:06:01.515Z,1020.14
2022-08-30T04:07:00.848Z,1020.19
2022-08-30T04:08:00.847Z,1020.15
2022-08-30T04:09:00.855Z,1020.15
2022-08-30T04:10:00.546Z,1020.24
2022-08-30T04:11:00.217Z,1020.19
2022-08-30T04:11:59.878Z,1020.18
2022-08-30T04:12:59.631Z,1020.2
2022-08-30T04:14:01.377Z,1020.21
2022-08-30T04:15:01.753Z,1020.23
2022-08-30T04:16:01.417Z,1020.24
2022-08-30T04:17:01.787Z,1020.24
2022-08-30T04:18:00.557Z,1020.2
2022-08-30T04:19:00.175Z,1020.21
2022-08-30T04:19:59.884Z,1020.25
2022-08-30T04:20:59.581Z,1020.22
2022-08-30T04:22:01.333Z,1020.23
2022-08-30T04:23:01.127Z,1020.23
2022-08-30T04:24:00.909Z,1020.29
2022-08-30T04:25:00.892Z,1020.24
2022-08-30T04:26:01.203Z,1020.28
2022-08-30T04:27:00.885Z,1020.23
2022-08-30T04:28:00.545Z,1020.3
2022-08-30T04:29:00.196Z,1020.25
2022-08-30T04:30:05.178Z,1020.29
2022-08-30T04:31:00.986Z,1020.3
2022-08-30T04:32:01.507Z,1020.28
2022-08-30T04:33:01.259Z,1020.31
2022-08-30T04:34:00.989Z,1020.32
2022-08-30T04:35:08.270Z,1020.33
2022-08-30T04:36:00.698Z,1020.37
2022-08-30T04:37:00.967Z,1020.38
2022-08-30T04:38:00.762Z,1020.4
2022-08-30T04:39:00.501Z,1020.39
2022-08-30T04:40:11.274Z,1020.43
2022-08-30T04:41:01.668Z,1020.44
2022-08-30T04:42:00.959Z,1020.43
2022-08-30T04:43:00.602Z,1020.44
2022-08-30T04:44:00.260Z,1020.44
2022-08-30T04:45:14.577Z,1020.47
2022-08-30T04:46:01.406Z,1020.47
2022-08-30T04:47:01.418Z,1020.44
2022-08-30T04:48:01.073Z,1020.46
2022-08-30T04:49:00.784Z,1020.53
2022-08-30T04:50:00.468Z,1020.52
2022-08-30T04:51:00.237Z,1020.47
2022-08-30T04:51:59.877Z,1020.47
2022-08-30T04:52:59.683Z,1020.47
2022-08-30T04:54:01.418Z,1020.44
2022-08-30T04:55:01.407Z,1020.47
2022-08-30T04:56:01.155Z,1020.47
2022-08-30T04:57:00.743Z,1020.45
2022-08-30T04:58:00.381Z,1020.5
2022-08-30T04:59:00.032Z,1020.51
2022-08-30T04:59:59.731Z,1020.51
2022-08-30T05:01:01.883Z,1020.54
2022-08-30T05:02:00.937Z,1020.52
2022-08-30T05:03:01.144Z,1020.54
2022-08-30T05:04:00.732Z,1020.53
2022-08-30T05:05:00.727Z,1020.56
2022-08-30T05:06:00.455Z,1020.5
2022-08-30T05:07:00.080Z,1020.52
2022-08-30T05:07:59.745Z,1020.5
2022-08-30T05:09:01.429Z,1020.49
2022-08-30T05:10:00.753Z,1020.5
2022-08-30T05:11:00.549Z,1020.51
2022-08-30T05:12:00.541Z,1020.53
2022-08-30T05:13:00.159Z,1020.53
2022-08-30T05:13:59.997Z,1020.55
2022-08-30T05:14:59.725Z,1020.56
2022-08-30T05:16:01.481Z,1020.61
2022-08-30T05:17:01.420Z,1020.64
2022-08-30T05:18:01.171Z,1020.57
2022-08-30T05:19:00.863Z,1020.63
2022-08-30T05:20:00.493Z,1020.61
2022-08-30T05:21:00.313Z,1020.59
2022-08-30T05:22:00.275Z,1020.64
2022-08-30T05:23:00.297Z,1020.62
2022-08-30T05:24:00.151Z,1020.63
2022-08-30T05:24:59.823Z,1020.67
2022-08-30T05:26:02.277Z,1020.66
2022-08-30T05:27:01.273Z,1020.66
2022-08-30T05:28:00.932Z,1020.7
2022-08-30T05:29:00.632Z,1020.69
2022-08-30T05:30:01.344Z,1020.66
2022-08-30T05:31:01.231Z,1020.7
2022-08-30T05:32:00.760Z,1020.69
2022-08-30T05:33:00.453Z,1020.73
2022-08-30T05:34:00.532Z,1020.7
2022-08-30T05:35:00.466Z,1020.71
2022-08-30T05:36:00.187Z,1020.72
2022-08-30T05:37:01.004Z,1020.71
2022-08-30T05:38:01.104Z,1020.71
2022-08-30T05:39:01.326Z,1020.73
2022-08-30T05:40:00.919Z,1020.8
2022-08-30T05:41:02.368Z,1020.79
2022-08-30T05:42:01.305Z,1020.83
2022-08-30T05:43:01.823Z,1020.8
2022-08-30T05:44:01.009Z,1020.8
2022-08-30T05:45:00.730Z,1020.82
2022-08-30T05:46:00.374Z,1020.8
2022-08-30T05:47:00.155Z,1020.79
2022-08-30T05:47:59.837Z,1020.85
2022-08-30T05:49:01.584Z,1020.88
2022-08-30T05:50:01.202Z,1020.84
2022-08-30T05:51:00.886Z,1020.86
2022-08-30T05:52:00.794Z,1020.86
2022-08-30T05:53:00.650Z,1020.87
2022-08-30T05:54:00.606Z,1020.86
2022-08-30T05:55:00.380Z,1020.84
2022-08-30T05:56:01.965Z,1020.88
2022-08-30T05:57:00.939Z,1020.86
2022-08-30T05:58:00.611Z,1020.9
2022-08-30T05:59:00.727Z,1020.86
2022-08-30T06:00:00.540Z,1020.88
2022-08-30T06:01:06.829Z,1020.9
2022-08-30T06:02:01.520Z,1020.81
2022-08-30T06:03:01.004Z,1020.82
2022-08-30T06:04:03.938Z,1020.84
2022-08-30T06:05:00.667Z,1020.9
2022-08-30T06:06:11.534Z,1020.88
2022-08-30T06:07:01.124Z,1020.9
2022-08-30T06:08:00.972Z,1020.93
2022-08-30T06:09:00.726Z,1020.95
2022-08-30T06:10:00.476Z,1020.96
2022-08-30T06:11:00.162Z,1020.95
2022-08-30T06:11:59.892Z,1020.93
2022-08-30T06:12:59.688Z,1020.94
2022-08-30T06:14:02.007Z,1020.95
2022-08-30T06:15:01.392Z,1020.93
2022-08-30T06:16:01.746Z,1020.93
2022-08-30T06:17:00.846Z,1020.96
2022-08-30T06:18:00.479Z,1020.95
2022-08-30T06:19:01.011Z,1020.9
2022-08-30T06:20:00.656Z,1020.92
2022-08-30T06:21:00.377Z,1020.91
2022-08-30T06:22:00.107Z,1020.88
2022-08-30T06:23:00.690Z,1020.88
2022-08-30T06:24:00.537Z,1020.86
2022-08-30T06:25:00.300Z,1020.92
2022-08-30T06:25:59.992Z,1020.86
2022-08-30T06:26:59.845Z,1020.88
2022-08-30T06:28:01.638Z,1020.86
2022-08-30T06:29:01.404Z,1020.9
2022-08-30T06:30:00.618Z,1020.91
2022-08-30T06:31:00.419Z,1020.91
2022-08-30T06:32:00.297Z,1020.93
2022-08-30T06:33:00.239Z,1020.96
2022-08-30T06:33:59.933Z,1020.92
2022-08-30T06:34:59.584Z,1020.96
2022-08-30T06:36:05.385Z,1020.93
2022-08-30T06:37:00.881Z,1020.96
2022-08-30T06:38:00.751Z,1020.92
2022-08-30T06:39:00.426Z,1020.92
2022-08-30T06:40:00.782Z,1020.94
2022-08-30T06:41:00.678Z,1020.95
2022-08-30T06:42:00.410Z,1020.94
2022-08-30T06:43:00.054Z,1020.98
2022-08-30T06:43:59.944Z,1020.97
2022-08-30T06:44:59.596Z,1020.95
2022-08-30T06:46:01.436Z,1020.9
2022-08-30T06:47:00.774Z,1020.95
2022-08-30T06:48:00.487Z,1020.92
2022-08-30T06:49:00.374Z,1020.95
2022-08-30T06:50:00.003Z,1020.93
2022-08-30T06:50:59.731Z,1020.94
2022-08-30T06:52:01.403Z,1020.95
2022-08-30T06:53:01.390Z,1020.93
2022-08-30T06:54:01.090Z,1020.91
2022-08-30T06:55:00.988Z,1020.94
2022-08-30T06:56:00.839Z,1020.93
2022-08-30T06:57:00.513Z,1020.9
2022-08-30T06:58:00.244Z,1020.96
2022-08-30T06:58:59.997Z,1020.93
2022-08-30T06:59:59.717Z,1020.97
2022-08-30T07:01:01.565Z,1020.95
2022-08-30T07:02:00.860Z,1020.94
2022-08-30T07:03:00.815Z,1020.96
2022-08-30T07:04:00.539Z,1021.04
2022-08-30T07:05:00.173Z,1021.05
2022-08-30T07:05:59.914Z,1021
2022-08-30T07:06:59.642Z,1021.01
2022-08-30T07:08:01.283Z,1021.06
2022-08-30T07:09:01.813Z,1021.02
2022-08-30T07:10:01.100Z,1021.03
2022-08-30T07:11:00.705Z,1021
2022-08-30T07:12:00.423Z,1021.04
2022-08-30T07:13:00.093Z,1021.03
2022-08-30T07:13:59.787Z,1021.01
2022-08-30T07:15:01.453Z,1020.98
2022-08-30T07:16:01.167Z,1021.01
2022-08-30T07:17:00.831Z,1021.03
2022-08-30T07:18:00.537Z,1021.06
2022-08-30T07:19:00.296Z,1021.1
2022-08-30T07:20:00.051Z,1021.07
2022-08-30T07:20:59.743Z,1021.09
2022-08-30T07:22:02.294Z,1021.08
2022-08-30T07:23:01.410Z,1021.12
2022-08-30T07:24:01.295Z,1021.05
2022-08-30T07:25:00.981Z,1021.09
2022-08-30T07:26:00.582Z,1021.1
2022-08-30T07:27:03.147Z,1021.1
2022-08-30T07:28:01.963Z,1021.11
2022-08-30T07:29:00.878Z,1021.05
2022-08-30T07:30:00.687Z,1021.11
2022-08-30T07:31:00.578Z,1021.09
2022-08-30T07:32:03.417Z,1021.09
2022-08-30T07:33:01.142Z,1021.12
2022-08-30T07:34:00.847Z,1021.12
2022-08-30T07:35:00.794Z,1021.12
2022-08-30T07:36:00.484Z,1021.16
2022-08-30T07:37:06.834Z,1021.17
2022-08-30T07:38:00.560Z,1021.2
2022-08-30T07:39:00.264Z,1021.19
2022-08-30T07:40:00.457Z,1021.21
2022-08-30T07:41:00.389Z,1021.21
2022-08-30T07:42:10.651Z,1021.26
2022-08-30T07:43:01.109Z,1021.25
2022-08-30T07:44:00.913Z,1021.26
2022-08-30T07:45:00.601Z,1021.29
2022-08-30T07:46:00.369Z,1021.29
2022-08-30T07:47:12.465Z,1021.31
2022-08-30T07:48:01.148Z,1021.33
2022-08-30T07:49:00.835Z,1021.34
2022-08-30T07:50:01.457Z,1021.35
2022-08-30T07:51:04.994Z,1021.32
2022-08-30T07:52:16.934Z,1021.32
2022-08-30T07:53:01.160Z,1021.33
2022-08-30T07:54:00.939Z,1021.35
2022-08-30T07:55:00.673Z,1021.33
2022-08-30T07:56:00.428Z,1021.35
2022-08-30T07:57:01.347Z,1021.34
2022-08-30T07:59:01.620Z,1021.31
2022-08-30T08:00:01.954Z,1021.32
2022-08-30T08:01:01.396Z,1021.3
2022-08-30T08:02:01.258Z,1021.3
2022-08-30T08:03:01.129Z,1021.28
2022-08-30T08:04:01.079Z,1021.35
2022-08-30T08:05:00.754Z,1021.37
2022-08-30T08:06:00.388Z,1021.36
2022-08-30T08:07:00.147Z,1021.41
2022-08-30T08:08:00.367Z,1021.39
2022-08-30T08:09:00.153Z,1021.37
2022-08-30T08:09:59.852Z,1021.41
2022-08-30T08:11:01.656Z,1021.38
2022-08-30T08:12:01.292Z,1021.47
2022-08-30T08:13:01.206Z,1021.41
2022-08-30T08:14:01.020Z,1021.44
2022-08-30T08:15:02.124Z,1021.44
2022-08-30T08:16:00.895Z,1021.42
2022-08-30T08:17:00.606Z,1021.44
2022-08-30T08:18:00.371Z,1021.41
2022-08-30T08:19:00.130Z,1021.46
2022-08-30T08:19:59.782Z,1021.47
2022-08-30T08:21:01.561Z,1021.46
2022-08-30T08:23:01.491Z,1021.45
2022-08-30T08:24:01.280Z,1021.42
2022-08-30T08:25:00.976Z,1021.42
2022-08-30T08:26:00.677Z,1021.45
2022-08-30T08:27:00.372Z,1021.45
2022-08-30T08:28:00.087Z,1021.46
2022-08-30T08:28:59.881Z,1021.49
2022-08-30T08:29:59.587Z,1021.41
2022-08-30T08:31:01.476Z,1021.46
2022-08-30T08:32:01.242Z,1021.53
2022-08-30T08:33:01.070Z,1021.46
2022-08-30T08:35:00.429Z,1021.45
2022-08-30T08:36:00.162Z,1021.48
2022-08-30T08:36:59.801Z,1021.54
2022-08-30T08:38:01.648Z,1021.5
2022-08-30T08:39:01.399Z,1021.49
2022-08-30T08:40:01.236Z,1021.53
2022-08-30T08:41:01.132Z,1021.49
2022-08-30T08:42:00.881Z,1021.5
2022-08-30T08:43:00.593Z,1021.54
2022-08-30T08:44:00.285Z,1021.54
2022-08-30T08:45:00.036Z,1021.53
2022-08-30T08:45:59.841Z,1021.59
2022-08-30T08:47:00.086Z,1021.55
2022-08-30T08:48:01.453Z,1021.58
2022-08-30T08:49:01.002Z,1021.59
2022-08-30T08:50:00.726Z,1021.62
2022-08-30T08:51:02.736Z,1021.62
2022-08-30T08:52:00.843Z,1021.61
2022-08-30T08:53:01.165Z,1021.59
2022-08-30T08:54:00.671Z,1021.56
2022-08-30T08:55:00.800Z,1021.58
2022-08-30T08:56:00.571Z,1021.54
2022-08-30T08:57:00.254Z,1021.56
2022-08-30T08:57:59.980Z,1021.53
2022-08-30T08:58:59.659Z,1021.51
2022-08-30T09:00:01.558Z,1021.52
2022-08-30T09:01:01.496Z,1021.5
2022-08-30T09:02:01.230Z,1021.52
2022-08-30T09:03:00.939Z,1021.52
2022-08-30T09:04:00.718Z,1021.52
2022-08-30T09:05:00.473Z,1021.53
2022-08-30T09:06:00.226Z,1021.54
2022-08-30T09:06:59.915Z,1021.49
2022-08-30T09:07:59.609Z,1021.51
2022-08-30T09:09:01.394Z,1021.49
2022-08-30T09:10:01.626Z,1021.49
2022-08-30T09:11:01.279Z,1021.44
2022-08-30T09:12:00.972Z,1021.49
2022-08-30T09:13:02.313Z,1021.4
2022-08-30T09:14:01.111Z,1021.43
2022-08-30T09:15:00.897Z,1021.47
2022-08-30T09:16:00.758Z,1021.47
2022-08-30T09:17:03.015Z,1021.46
2022-08-30T09:18:02.347Z,1021.41
2022-08-30T09:19:01.005Z,1021.43
2022-08-30T09:20:00.717Z,1021.42
2022-08-30T09:21:00.527Z,1021.44
2022-08-30T09:22:00.429Z,1021.45
2022-08-30T09:23:05.694Z,1021.41
2022-08-30T09:24:01.152Z,1021.42
2022-08-30T09:25:01.204Z,1021.36
2022-08-30T09:26:01.022Z,1021.38
2022-08-30T09:27:00.837Z,1021.38
2022-08-30T09:28:08.034Z,1021.34
2022-08-30T09:29:01.558Z,1021.34
2022-08-30T09:30:01.477Z,1021.29
2022-08-30T09:31:01.471Z,1021.27
2022-08-30T09:32:22.454Z,1021.28
2022-08-30T09:33:11.661Z,1021.29
2022-08-30T09:34:01.663Z,1021.35
2022-08-30T09:35:01.346Z,1021.32
2022-08-30T09:36:01.041Z,1021.3
2022-08-30T09:37:00.709Z,1021.32
2022-08-30T09:38:14.357Z,1021.35
2022-08-30T09:39:01.390Z,1021.34
2022-08-30T09:40:01.182Z,1021.29
2022-08-30T09:41:01.067Z,1021.24
2022-08-30T09:42:01.034Z,1021.3
2022-08-30T09:43:01.377Z,1021.29
2022-08-30T09:44:00.772Z,1021.31
2022-08-30T09:45:01.015Z,1021.28
2022-08-30T09:46:00.667Z,1021.29
2022-08-30T09:47:00.380Z,1021.25
2022-08-30T09:48:00.200Z,1021.27
2022-08-30T09:48:59.903Z,1021.29
2022-08-30T09:49:59.587Z,1021.28
2022-08-30T09:51:01.349Z,1021.31
2022-08-30T09:52:00.926Z,1021.32
2022-08-30T09:53:00.627Z,1021.32
2022-08-30T09:54:17.413Z,1021.35
2022-08-30T09:55:01.895Z,1021.35
2022-08-30T09:56:01.011Z,1021.32
2022-08-30T09:57:00.712Z,1021.36
2022-08-30T09:58:00.785Z,1021.32
2022-08-30T09:59:00.587Z,1021.31
2022-08-30T10:00:00.562Z,1021.32
2022-08-30T10:01:00.544Z,1021.33
2022-08-30T10:02:00.383Z,1021.4
2022-08-30T10:03:00.608Z,1021.42
2022-08-30T10:04:00.322Z,1021.41
2022-08-30T10:04:59.989Z,1021.4
2022-08-30T10:05:59.703Z,1021.42
2022-08-30T10:07:01.449Z,1021.41
2022-08-30T10:08:01.540Z,1021.42
2022-08-30T10:09:01.240Z,1021.39
2022-08-30T10:10:00.947Z,1021.39
2022-08-30T10:11:00.657Z,1021.34
2022-08-30T10:12:00.533Z,1021.36
2022-08-30T10:13:00.376Z,1021.4
2022-08-30T10:14:00.373Z,1021.42
2022-08-30T10:15:00.289Z,1021.39
2022-08-30T10:15:59.932Z,1021.41
2022-08-30T10:16:59.656Z,1021.42
2022-08-30T10:18:01.320Z,1021.4
2022-08-30T10:19:01.301Z,1021.35
2022-08-30T10:20:01.013Z,1021.38
2022-08-30T10:21:00.720Z,1021.39
2022-08-30T10:22:00.546Z,1021.34
2022-08-30T10:23:00.264Z,1021.35
2022-08-30T10:23:59.921Z,1021.36
2022-08-30T10:24:59.614Z,1021.35
2022-08-30T10:26:01.371Z,1021.35
2022-08-30T10:27:01.059Z,1021.33
2022-08-30T10:28:01.045Z,1021.3
2022-08-30T10:29:00.859Z,1021.31
2022-08-30T10:30:01.160Z,1021.33
2022-08-30T10:31:00.995Z,1021.32
2022-08-30T10:32:00.680Z,1021.31
2022-08-30T10:33:00.372Z,1021.31
2022-08-30T10:34:00.090Z,1021.33
2022-08-30T10:35:00.204Z,1021.34
2022-08-30T10:35:59.860Z,1021.36
2022-08-30T10:37:01.534Z,1021.35
2022-08-30T10:38:01.764Z,1021.32
2022-08-30T10:39:01.275Z,1021.3
2022-08-30T10:40:01.898Z,1021.3
2022-08-30T10:41:01.046Z,1021.29
2022-08-30T10:42:00.719Z,1021.29
2022-08-30T10:43:00.431Z,1021.27
2022-08-30T10:44:00.419Z,1021.29
2022-08-30T10:45:00.357Z,1021.23
2022-08-30T10:46:00.076Z,1021.25
2022-08-30T10:46:59.858Z,1021.24
2022-08-30T10:48:00.035Z,1021.26
2022-08-30T10:48:59.843Z,1021.19
2022-08-30T10:50:01.540Z,1021.2
2022-08-30T10:51:01.538Z,1021.17
2022-08-30T10:52:01.124Z,1021.15
2022-08-30T10:53:00.899Z,1021.17
2022-08-30T10:54:00.547Z,1021.18
2022-08-30T10:55:00.237Z,1021.18
2022-08-30T10:56:00.443Z,1021.19
2022-08-30T10:57:00.853Z,1021.18
2022-08-30T10:58:00.792Z,1021.2
2022-08-30T10:59:00.899Z,1021.18
2022-08-30T11:00:00.710Z,1021.19
2022-08-30T11:01:01.412Z,1021.19
2022-08-30T11:02:01.274Z,1021.17
2022-08-30T11:03:01.012Z,1021.23
2022-08-30T11:04:03.062Z,1021.17
2022-08-30T11:05:00.889Z,1021.16
2022-08-30T11:06:00.713Z,1021.18
2022-08-30T11:07:00.409Z,1021.16
2022-08-30T11:08:00.064Z,1021.11
2022-08-30T11:09:05.925Z,1021.12
2022-08-30T11:10:02.171Z,1021.07
2022-08-30T11:11:00.632Z,1021.06
2022-08-30T11:12:00.409Z,1021.06
2022-08-30T11:13:00.732Z,1021.07
2022-08-30T11:14:10.927Z,1021.09
2022-08-30T11:15:01.601Z,1021.08
2022-08-30T11:16:00.806Z,1021.05
2022-08-30T11:17:00.822Z,1021.02
2022-08-30T11:18:00.574Z,1021.06
2022-08-30T11:19:12.326Z,1021.09
2022-08-30T11:20:02.403Z,1021.03
2022-08-30T11:21:01.223Z,1021.05
2022-08-30T11:22:00.835Z,1021.05
2022-08-30T11:23:00.531Z,1021.05
2022-08-30T11:24:00.158Z,1021.06
2022-08-30T11:24:59.898Z,1021.03
2022-08-30T11:25:59.615Z,1021.01
2022-08-30T11:27:00.630Z,1020.99
2022-08-30T11:28:00.715Z,1021.01
2022-08-30T11:29:00.709Z,1020.99
2022-08-30T11:30:00.781Z,1021
2022-08-30T11:31:00.564Z,1020.97
2022-08-30T11:32:00.313Z,1020.92
2022-08-30T11:33:02.177Z,1020.96
2022-08-30T11:34:01.250Z,1020.96
2022-08-30T11:35:00.996Z,1020.93
2022-08-30T11:36:01.021Z,1020.93
2022-08-30T11:37:00.843Z,1020.86
2022-08-30T11:38:00.807Z,1020.84
2022-08-30T11:39:00.510Z,1020.83
2022-08-30T11:40:04.013Z,1020.82
2022-08-30T11:41:01.545Z,1020.78
2022-08-30T11:42:01.240Z,1020.85
2022-08-30T11:43:01.052Z,1020.78
2022-08-30T11:44:01.026Z,1020.79
2022-08-30T11:45:00.802Z,1020.84
2022-08-30T11:46:00.906Z,1020.8
2022-08-30T11:47:00.637Z,1020.83
2022-08-30T11:48:00.387Z,1020.79
2022-08-30T11:49:01.354Z,1020.81
2022-08-30T11:50:01.027Z,1020.76
2022-08-30T11:51:00.800Z,1020.75
2022-08-30T11:53:00.807Z,1020.72
2022-08-30T11:54:00.670Z,1020.71
2022-08-30T11:55:00.424Z,1020.72
2022-08-30T11:56:00.152Z,1020.72
2022-08-30T11:56:59.927Z,1020.7
2022-08-30T11:57:59.818Z,1020.68
2022-08-30T11:59:01.711Z,1020.67
2022-08-30T12:00:01.537Z,1020.72
2022-08-30T12:01:01.521Z,1020.7
2022-08-30T12:02:00.944Z,1020.68
2022-08-30T12:03:01.107Z,1020.66
2022-08-30T12:04:01.601Z,1020.66
2022-08-30T12:05:00.778Z,1020.63
2022-08-30T12:06:00.669Z,1020.66
2022-08-30T12:07:00.690Z,1020.67
2022-08-30T12:08:00.561Z,1020.63
2022-08-30T12:09:02.232Z,1020.63
2022-08-30T12:10:01.036Z,1020.63
2022-08-30T12:11:01.541Z,1020.61
2022-08-30T12:12:01.231Z,1020.61
2022-08-30T12:13:02.077Z,1020.56